createdAt,value
2023-02-24T00:00:37.902Z,11.20
2023-02-24T00:03:11.191Z,11.10
2023-02-24T00:05:44.356Z,11.10
2023-02-24T00:08:12.733Z,11.10
2023-02-24T00:10:41.307Z,11.10
2023-02-24T00:13:12.008Z,11.10
2023-02-24T00:15:40.284Z,11.00
2023-02-24T00:18:09.233Z,11.00
2023-02-24T00:20:37.480Z,11.00
2023-02-24T00:23:09.790Z,11.00
2023-02-24T00:25:37.957Z,11.00
2023-02-24T00:28:06.392Z,11.00
2023-02-24T00:30:34.499Z,10.90
2023-02-24T00:33:03.960Z,10.90
2023-02-24T00:35:32.413Z,10.90
2023-02-24T00:38:00.935Z,10.90
2023-02-24T00:40:30.800Z,10.90
2023-02-24T00:42:59.227Z,10.90
2023-02-24T00:45:30.982Z,10.90
2023-02-24T00:47:59.428Z,10.90
2023-02-24T00:50:27.690Z,10.90
2023-02-24T00:52:55.877Z,10.90
2023-02-24T00:55:24.296Z,10.90
2023-02-24T00:57:53.966Z,10.90
2023-02-24T01:00:23.517Z,10.90
2023-02-24T01:02:52.317Z,10.90
2023-02-24T01:05:21.203Z,10.90
2023-02-24T01:07:49.412Z,10.90
2023-02-24T01:10:18.410Z,10.90
2023-02-24T01:12:53.876Z,10.90
2023-02-24T01:15:24.343Z,10.90
2023-02-24T01:17:52.553Z,10.90
2023-02-24T01:20:20.945Z,10.90
2023-02-24T01:22:53.312Z,10.90
2023-02-24T01:25:21.727Z,10.80
2023-02-24T01:27:50.688Z,10.80
2023-02-24T01:30:19.107Z,10.80
2023-02-24T01:32:49.103Z,10.80
2023-02-24T01:35:17.812Z,10.80
2023-02-24T01:37:46.361Z,10.80
2023-02-24T01:40:21.312Z,10.80
2023-02-24T01:42:50.588Z,10.80
2023-02-24T01:45:22.896Z,10.80
2023-02-24T01:47:54.097Z,10.80
2023-02-24T01:50:26.037Z,10.80
2023-02-24T01:52:59.094Z,10.80
2023-02-24T01:55:32.114Z,10.80
2023-02-24T01:58:02.978Z,10.80
2023-02-24T02:00:38.366Z,10.80
2023-02-24T02:03:20.407Z,10.80
2023-02-24T02:05:49.283Z,10.80
2023-02-24T02:08:19.828Z,10.80
2023-02-24T02:10:48.966Z,10.80
2023-02-24T02:13:21.521Z,10.80
2023-02-24T02:16:03.074Z,10.80
2023-02-24T02:18:43.446Z,10.70
2023-02-24T02:21:37.333Z,10.70
2023-02-24T02:24:32.514Z,10.70
2023-02-24T02:28:00.350Z,10.70
2023-02-24T02:31:07.620Z,10.70
2023-02-24T02:34:08.729Z,10.70
2023-02-24T02:36:44.377Z,10.70
2023-02-24T02:39:17.892Z,10.70
2023-02-24T02:41:53.729Z,10.70
2023-02-24T02:44:27.966Z,10.70
2023-02-24T02:47:02.748Z,10.70
2023-02-24T02:49:37.340Z,10.70
2023-02-24T02:52:13.763Z,10.70
2023-02-24T02:54:49.793Z,10.70
2023-02-24T02:57:22.480Z,10.80
2023-02-24T02:59:56.238Z,10.70
2023-02-24T03:02:29.603Z,10.80
2023-02-24T03:05:02.994Z,10.80
2023-02-24T03:07:40.465Z,10.70
2023-02-24T03:10:17.696Z,10.70
2023-02-24T03:12:50.765Z,10.70
2023-02-24T03:15:22.145Z,10.80
2023-02-24T03:17:57.347Z,10.70
2023-02-24T03:20:32.738Z,10.70
2023-02-24T03:23:04.314Z,10.70
2023-02-24T03:25:44.610Z,10.70
2023-02-24T03:28:17.724Z,10.70
2023-02-24T03:30:52.200Z,10.70
2023-02-24T03:33:29.684Z,10.70
2023-02-24T03:36:01.845Z,10.70
2023-02-24T03:38:33.550Z,10.70
2023-02-24T03:41:02.224Z,10.70
2023-02-24T03:43:33.813Z,10.70
2023-02-24T03:46:02.334Z,10.70
2023-02-24T03:48:30.838Z,10.60
2023-02-24T03:51:00.776Z,10.60
2023-02-24T03:53:37.907Z,10.60
2023-02-24T03:56:18.153Z,10.60
2023-02-24T03:58:59.643Z,10.60
2023-02-24T04:01:34.839Z,10.50
2023-02-24T04:04:08.521Z,10.50
2023-02-24T04:06:46.122Z,10.50
2023-02-24T04:09:20.211Z,10.50
2023-02-24T04:11:55.997Z,10.40
2023-02-24T04:14:29.244Z,10.40
2023-02-24T04:17:01.304Z,10.40
2023-02-24T04:19:33.525Z,10.40
2023-02-24T04:22:04.315Z,10.40
2023-02-24T04:24:35.074Z,10.40
2023-02-24T04:27:07.460Z,10.40
2023-02-24T04:29:47.003Z,10.40
2023-02-24T04:32:18.975Z,10.40
2023-02-24T04:34:47.454Z,10.40
2023-02-24T04:37:17.061Z,10.40
2023-02-24T04:39:46.179Z,10.40
2023-02-24T04:42:14.370Z,10.40
2023-02-24T04:44:42.965Z,10.40
2023-02-24T04:47:12.310Z,10.40
2023-02-24T04:49:41.155Z,10.40
2023-02-24T04:52:10.445Z,10.40
2023-02-24T04:54:40.151Z,10.40
2023-02-24T04:57:10.637Z,10.40
2023-02-24T04:59:38.970Z,10.40
2023-02-24T05:02:07.549Z,10.40
2023-02-24T05:04:38.956Z,10.40
2023-02-24T05:07:07.327Z,10.40
2023-02-24T05:09:35.474Z,10.40
2023-02-24T05:12:05.489Z,10.40
2023-02-24T05:14:33.689Z,10.40
2023-02-24T05:17:02.393Z,10.30
2023-02-24T05:19:47.920Z,10.30
2023-02-24T05:22:17.720Z,10.30
2023-02-24T05:24:48.118Z,10.30
2023-02-24T05:27:18.388Z,10.30
2023-02-24T05:29:46.802Z,10.30
2023-02-24T05:32:16.871Z,10.30
2023-02-24T05:34:45.127Z,10.20
2023-02-24T05:37:16.882Z,10.20
2023-02-24T05:39:45.097Z,10.20
2023-02-24T05:42:13.233Z,10.20
2023-02-24T05:44:42.830Z,10.20
2023-02-24T05:47:11.365Z,10.20
2023-02-24T05:49:39.803Z,10.20
2023-02-24T05:52:10.229Z,10.20
2023-02-24T05:54:41.679Z,10.20
2023-02-24T05:57:12.871Z,10.20
2023-02-24T05:59:43.482Z,10.20
2023-02-24T06:02:13.899Z,10.20
2023-02-24T06:04:51.317Z,10.30
2023-02-24T06:07:22.912Z,10.30
2023-02-24T06:09:53.840Z,10.30
2023-02-24T06:12:23.279Z,10.30
2023-02-24T06:14:53.166Z,10.30
2023-02-24T06:17:23.042Z,10.30
2023-02-24T06:19:52.875Z,10.30
2023-02-24T06:22:23.803Z,10.30
2023-02-24T06:24:54.107Z,10.40
2023-02-24T06:27:25.217Z,10.30
2023-02-24T06:29:56.874Z,10.30
2023-02-24T06:32:27.410Z,10.30
2023-02-24T06:34:57.582Z,10.30
2023-02-24T06:37:25.973Z,10.30
2023-02-24T06:39:54.192Z,10.30
2023-02-24T06:42:22.544Z,10.20
2023-02-24T06:44:51.239Z,10.20
2023-02-24T06:47:22.645Z,10.20
2023-02-24T06:49:51.603Z,10.20
2023-02-24T06:52:19.900Z,10.20
2023-02-24T06:54:49.730Z,10.20
2023-02-24T06:57:18.393Z,10.20
2023-02-24T06:59:48.803Z,10.30
2023-02-24T07:02:17.715Z,10.30
2023-02-24T07:04:47.740Z,10.30
2023-02-24T07:07:17.494Z,10.40
2023-02-24T07:09:45.890Z,10.40
2023-02-24T07:12:21.025Z,10.40
2023-02-24T07:14:50.465Z,10.40
2023-02-24T07:17:19.956Z,10.40
2023-02-24T07:19:49.689Z,10.40
2023-02-24T07:22:25.139Z,10.40
2023-02-24T07:25:00.529Z,10.40
2023-02-24T07:27:29.048Z,10.50
2023-02-24T07:29:57.280Z,10.50
2023-02-24T07:32:25.897Z,10.50
2023-02-24T07:34:55.625Z,10.50
2023-02-24T07:37:24.478Z,10.60
2023-02-24T07:39:53.029Z,10.60
2023-02-24T07:42:21.272Z,10.60
2023-02-24T07:44:49.681Z,10.70
2023-02-24T07:47:17.952Z,10.70
2023-02-24T07:49:46.345Z,10.80
2023-02-24T07:52:16.201Z,10.80
2023-02-24T07:54:44.445Z,10.90
2023-02-24T07:57:14.176Z,10.90
2023-02-24T07:59:47.039Z,10.90
2023-02-24T08:02:15.782Z,11.00
2023-02-24T08:04:50.602Z,11.00
2023-02-24T08:07:24.932Z,11.10
2023-02-24T08:10:14.523Z,11.10
2023-02-24T08:12:43.798Z,11.20
2023-02-24T08:15:22.083Z,11.20
2023-02-24T08:17:50.186Z,11.30
2023-02-24T08:20:29.814Z,11.30
2023-02-24T08:22:59.548Z,11.40
2023-02-24T08:25:35.951Z,11.40
2023-02-24T08:28:09.592Z,11.50
2023-02-24T08:30:40.319Z,11.60
2023-02-24T08:33:10.930Z,11.60
2023-02-24T08:35:44.799Z,11.60
2023-02-24T08:38:16.486Z,11.70
2023-02-24T08:40:54.815Z,11.80
2023-02-24T08:43:34.720Z,11.90
2023-02-24T08:46:13.403Z,11.90
2023-02-24T08:48:43.411Z,11.90
2023-02-24T08:51:15.181Z,12.00
2023-02-24T08:53:46.813Z,12.10
2023-02-24T08:56:24.393Z,12.10
2023-02-24T08:58:57.655Z,12.20
2023-02-24T09:01:34.625Z,12.20
2023-02-24T09:04:06.001Z,12.30
2023-02-24T09:06:41.118Z,12.30
2023-02-24T09:09:21.265Z,12.30
2023-02-24T09:11:56.183Z,12.40
2023-02-24T09:14:28.430Z,12.40
2023-02-24T09:17:05.523Z,12.50
2023-02-24T09:19:55.418Z,12.50
2023-02-24T09:22:41.126Z,12.60
2023-02-24T09:25:18.818Z,12.60
2023-02-24T09:27:52.302Z,12.60
2023-02-24T09:30:38.444Z,12.60
2023-02-24T09:33:08.723Z,12.60
2023-02-24T09:35:41.876Z,12.60
2023-02-24T09:38:10.185Z,12.60
2023-02-24T09:40:48.822Z,12.60
2023-02-24T09:43:24.506Z,12.60
2023-02-24T09:45:59.390Z,12.70
2023-02-24T09:48:43.873Z,12.70
2023-02-24T09:51:22.918Z,12.60
2023-02-24T09:53:54.502Z,12.60
2023-02-24T09:56:32.713Z,12.70
2023-02-24T09:59:12.685Z,12.70
2023-02-24T10:02:02.252Z,12.70
2023-02-24T10:04:49.429Z,12.70
2023-02-24T10:07:21.391Z,12.60
2023-02-24T10:09:54.045Z,12.60
2023-02-24T10:12:34.093Z,12.60
2023-02-24T10:15:19.762Z,12.60
2023-02-24T10:17:55.448Z,12.70
2023-02-24T10:20:39.368Z,12.70
2023-02-24T10:23:14.198Z,12.70
2023-02-24T10:25:54.149Z,12.70
2023-02-24T10:28:36.073Z,12.80
2023-02-24T10:31:25.383Z,12.80
2023-02-24T10:33:58.331Z,12.90
2023-02-24T10:36:35.347Z,12.90
2023-02-24T10:39:15.711Z,13.00
2023-02-24T10:41:46.966Z,13.00
2023-02-24T10:44:25.060Z,13.00
2023-02-24T10:47:11.682Z,13.10
2023-02-24T10:49:56.933Z,13.10
2023-02-24T10:52:50.791Z,13.00
2023-02-24T10:55:39.223Z,13.00
2023-02-24T10:58:15.934Z,12.90
2023-02-24T11:01:12.592Z,12.90
2023-02-24T11:03:48.002Z,12.80
2023-02-24T11:06:30.855Z,12.70
2023-02-24T11:09:19.229Z,12.60
2023-02-24T11:12:06.462Z,12.60
2023-02-24T11:15:06.053Z,12.60
2023-02-24T11:17:37.916Z,12.50
2023-02-24T11:20:17.565Z,12.60
2023-02-24T11:22:51.925Z,12.60
2023-02-24T11:25:24.310Z,12.60
2023-02-24T11:27:54.981Z,12.70
2023-02-24T11:30:30.955Z,12.70
2023-02-24T11:33:23.311Z,12.70
2023-02-24T11:36:05.281Z,12.70
2023-02-24T11:38:41.461Z,12.70
2023-02-24T11:41:20.668Z,12.80
2023-02-24T11:43:58.982Z,12.80
2023-02-24T11:46:37.176Z,12.80
2023-02-24T11:49:17.658Z,12.80
2023-02-24T11:51:46.666Z,12.90
2023-02-24T11:54:17.780Z,12.90
2023-02-24T11:56:50.019Z,12.90
2023-02-24T11:59:22.402Z,12.90
2023-02-24T12:01:59.325Z,12.90
2023-02-24T12:04:33.465Z,12.90
2023-02-24T12:07:06.878Z,12.90
2023-02-24T12:09:42.632Z,13.00
2023-02-24T12:12:14.952Z,12.90
2023-02-24T12:14:49.661Z,12.90
2023-02-24T12:17:25.335Z,12.90
2023-02-24T12:20:01.672Z,13.00
2023-02-24T12:22:40.028Z,13.00
2023-02-24T12:25:13.165Z,13.00
2023-02-24T12:27:49.527Z,13.00
2023-02-24T12:30:49.736Z,13.00
2023-02-24T12:33:53.334Z,13.00
2023-02-24T12:36:38.719Z,13.10
2023-02-24T12:39:16.259Z,13.10
2023-02-24T12:42:03.282Z,13.20
2023-02-24T12:44:44.152Z,13.20
2023-02-24T12:47:15.250Z,13.20
2023-02-24T12:50:09.241Z,13.20
2023-02-24T12:52:50.285Z,13.20
2023-02-24T12:55:24.491Z,13.20
2023-02-24T12:58:00.498Z,13.30
2023-02-24T13:00:37.646Z,13.30
2023-02-24T13:03:23.126Z,13.30
2023-02-24T13:05:57.242Z,13.40
2023-02-24T13:08:38.006Z,13.40
2023-02-24T13:11:13.440Z,13.50
2023-02-24T13:13:50.557Z,13.50
2023-02-24T13:16:30.631Z,13.60
2023-02-24T13:19:20.386Z,13.60
2023-02-24T13:22:02.400Z,13.70
2023-02-24T13:24:32.377Z,13.70
2023-02-24T13:27:18.545Z,13.60
2023-02-24T13:29:48.099Z,13.70
2023-02-24T13:32:29.579Z,13.70
2023-02-24T13:34:59.118Z,13.80
2023-02-24T13:37:32.508Z,13.80
2023-02-24T13:40:13.581Z,13.80
2023-02-24T13:42:42.169Z,13.90
2023-02-24T13:45:21.033Z,13.90
2023-02-24T13:48:20.684Z,13.90
2023-02-24T13:51:06.363Z,13.90
2023-02-24T13:53:48.531Z,14.00
2023-02-24T13:56:34.148Z,14.00
2023-02-24T13:59:37.235Z,14.00
2023-02-24T14:02:14.588Z,14.00
2023-02-24T14:04:49.418Z,14.00
2023-02-24T14:07:23.375Z,14.00
2023-02-24T14:09:55.699Z,14.00
2023-02-24T14:12:28.689Z,14.00
2023-02-24T14:14:58.440Z,14.00
2023-02-24T14:17:30.569Z,14.00
2023-02-24T14:20:11.144Z,13.90
2023-02-24T14:22:45.007Z,13.90
2023-02-24T14:25:15.827Z,13.90
2023-02-24T14:27:48.243Z,13.80
2023-02-24T14:30:26.764Z,13.80
2023-02-24T14:32:55.787Z,13.70
2023-02-24T14:35:32.323Z,13.70
2023-02-24T14:38:02.259Z,13.70
2023-02-24T14:40:30.997Z,13.70
2023-02-24T14:43:00.670Z,13.70
2023-02-24T14:45:30.897Z,13.70
2023-02-24T14:47:59.207Z,13.60
2023-02-24T14:50:31.295Z,13.70
2023-02-24T14:53:05.102Z,13.70
2023-02-24T14:55:37.209Z,13.70
2023-02-24T14:58:13.223Z,13.70
2023-02-24T15:00:46.943Z,13.70
2023-02-24T15:03:19.295Z,13.70
2023-02-24T15:05:51.615Z,13.70
2023-02-24T15:08:35.781Z,13.70
2023-02-24T15:11:11.453Z,13.70
2023-02-24T15:13:43.448Z,13.70
2023-02-24T15:16:19.088Z,13.70
2023-02-24T15:18:52.409Z,13.70
2023-02-24T15:21:23.689Z,13.70
2023-02-24T15:24:00.634Z,13.70
2023-02-24T15:26:31.180Z,13.70
2023-02-24T15:29:03.118Z,13.60
2023-02-24T15:31:31.633Z,13.60
2023-02-24T15:34:03.425Z,13.70
2023-02-24T15:36:34.812Z,13.60
2023-02-24T15:39:06.674Z,13.70
2023-02-24T15:41:42.096Z,13.70
2023-02-24T15:44:28.837Z,13.70
2023-02-24T15:46:57.668Z,13.80
2023-02-24T15:49:26.787Z,13.70
2023-02-24T15:51:59.607Z,13.80
2023-02-24T15:54:31.532Z,13.80
2023-02-24T15:57:01.621Z,13.80
2023-02-24T15:59:31.464Z,13.80
2023-02-24T16:01:59.668Z,13.80
2023-02-24T16:04:28.165Z,13.80
2023-02-24T16:06:58.581Z,13.70
2023-02-24T16:09:33.631Z,13.70
2023-02-24T16:12:03.091Z,13.70
2023-02-24T16:14:34.123Z,13.40
2023-02-24T16:17:04.435Z,13.40
2023-02-24T16:19:32.603Z,13.40
2023-02-24T16:22:00.892Z,13.40
2023-02-24T16:24:29.140Z,13.40
2023-02-24T16:26:57.482Z,13.40
2023-02-24T16:29:25.898Z,13.40
2023-02-24T16:31:55.668Z,13.50
2023-02-24T16:34:24.034Z,13.50
2023-02-24T16:36:52.316Z,13.50
2023-02-24T16:39:20.540Z,13.60
2023-02-24T16:41:49.019Z,13.60
2023-02-24T16:44:17.230Z,13.60
2023-02-24T16:46:46.297Z,13.60
2023-02-24T16:49:21.031Z,13.60
2023-02-24T16:51:49.151Z,13.60
2023-02-24T16:54:17.491Z,13.50
2023-02-24T16:56:46.747Z,13.50
2023-02-24T16:59:14.984Z,13.50
2023-02-24T17:01:44.182Z,13.50
2023-02-24T17:04:14.297Z,13.40
2023-02-24T17:06:44.390Z,13.20
2023-02-24T17:09:15.658Z,13.20
2023-02-24T17:11:44.926Z,13.20
2023-02-24T17:14:17.305Z,13.20
2023-02-24T17:16:45.624Z,13.20
2023-02-24T17:19:14.051Z,13.20
2023-02-24T17:21:45.661Z,13.20
2023-02-24T17:24:17.363Z,13.20
2023-02-24T17:26:45.705Z,13.30
2023-02-24T17:29:14.849Z,13.30
2023-02-24T17:31:43.548Z,13.30
2023-02-24T17:34:11.810Z,13.30
2023-02-24T17:36:40.009Z,13.30
2023-02-24T17:39:09.689Z,13.30
2023-02-24T17:41:37.839Z,13.30
2023-02-24T17:44:06.056Z,13.30
2023-02-24T17:46:34.268Z,13.30
2023-02-24T17:49:04.967Z,13.30
2023-02-24T17:51:33.573Z,13.30
2023-02-24T17:54:01.811Z,13.30
2023-02-24T17:56:31.501Z,13.30
2023-02-24T17:59:01.075Z,13.30
2023-02-24T18:01:29.755Z,13.30
2023-02-24T18:03:58.358Z,13.30
2023-02-24T18:06:26.876Z,13.30
2023-02-24T18:08:55.173Z,13.30
2023-02-24T18:11:23.333Z,13.30
2023-02-24T18:13:55.146Z,13.30
2023-02-24T18:16:23.672Z,13.30
2023-02-24T18:18:52.325Z,13.30
2023-02-24T18:21:20.888Z,13.30
2023-02-24T18:23:49.737Z,13.30
2023-02-24T18:26:18.403Z,13.30
2023-02-24T18:28:46.670Z,13.30
2023-02-24T18:31:18.799Z,13.30
2023-02-24T18:33:47.234Z,13.30
2023-02-24T18:36:16.145Z,13.30
2023-02-24T18:38:44.880Z,13.30
2023-02-24T18:41:15.615Z,13.30
2023-02-24T18:43:44.317Z,13.30
2023-02-24T18:46:16.338Z,13.30
2023-02-24T18:48:46.000Z,13.30
2023-02-24T18:51:14.942Z,13.30
2023-02-24T18:53:43.252Z,13.30
2023-02-24T18:56:13.841Z,13.30
2023-02-24T18:58:42.116Z,13.30
2023-02-24T19:01:14.118Z,13.30
2023-02-24T19:03:44.751Z,13.30
2023-02-24T19:06:14.901Z,13.30
2023-02-24T19:08:43.620Z,13.20
2023-02-24T19:11:13.656Z,13.20
2023-02-24T19:13:42.184Z,13.20
2023-02-24T19:16:10.436Z,13.20
2023-02-24T19:18:38.989Z,13.20
2023-02-24T19:21:10.066Z,13.20
2023-02-24T19:23:39.429Z,13.20
2023-02-24T19:26:15.655Z,13.20
2023-02-24T19:28:43.836Z,13.20
2023-02-24T19:31:14.647Z,13.10
2023-02-24T19:33:43.318Z,13.10
2023-02-24T19:36:13.277Z,13.10
2023-02-24T19:38:42.352Z,13.10
2023-02-24T19:41:10.505Z,13.10
2023-02-24T19:43:38.819Z,13.10
2023-02-24T19:46:08.282Z,13.10
2023-02-24T19:48:36.834Z,13.10
2023-02-24T19:51:09.815Z,13.10
2023-02-24T19:53:39.612Z,13.10
2023-02-24T19:56:08.347Z,13.00
2023-02-24T19:58:36.718Z,13.10
2023-02-24T20:01:10.363Z,13.00
2023-02-24T20:03:40.665Z,13.00
2023-02-24T20:06:17.041Z,13.00
2023-02-24T20:08:46.684Z,13.00
2023-02-24T20:11:15.702Z,13.00
2023-02-24T20:13:43.852Z,13.00
2023-02-24T20:16:13.784Z,13.00
2023-02-24T20:18:42.910Z,12.90
2023-02-24T20:21:11.988Z,12.90
2023-02-24T20:23:40.807Z,12.90
2023-02-24T20:26:13.984Z,12.90
2023-02-24T20:28:42.523Z,12.90
2023-02-24T20:31:13.144Z,12.80
2023-02-24T20:33:41.950Z,12.80
2023-02-24T20:36:11.642Z,12.80
2023-02-24T20:38:40.379Z,12.70
2023-02-24T20:41:09.988Z,12.70
2023-02-24T20:43:38.420Z,12.70
2023-02-24T20:46:14.209Z,12.70
2023-02-24T20:48:42.661Z,12.70
2023-02-24T20:51:12.356Z,12.60
2023-02-24T20:53:55.874Z,12.60
2023-02-24T20:56:27.737Z,12.60
2023-02-24T20:59:00.076Z,12.60
2023-02-24T21:01:28.947Z,12.60
2023-02-24T21:03:57.267Z,12.50
2023-02-24T21:06:26.034Z,12.50
2023-02-24T21:08:54.322Z,12.50
2023-02-24T21:11:23.264Z,12.40
2023-02-24T21:13:53.834Z,12.40
2023-02-24T21:16:23.348Z,12.40
2023-02-24T21:18:53.284Z,12.30
2023-02-24T21:21:22.015Z,12.30
2023-02-24T21:23:51.466Z,12.30
2023-02-24T21:26:20.913Z,12.20
2023-02-24T21:28:49.587Z,12.20
2023-02-24T21:31:21.708Z,12.20
2023-02-24T21:33:53.656Z,12.20
2023-02-24T21:36:25.785Z,12.20
2023-02-24T21:38:54.912Z,12.10
2023-02-24T21:41:23.801Z,12.10
2023-02-24T21:43:55.291Z,12.10
2023-02-24T21:46:28.351Z,12.10
2023-02-24T21:48:57.684Z,12.10
2023-02-24T21:51:26.899Z,12.10
2023-02-24T21:53:56.800Z,12.10
2023-02-24T21:56:27.063Z,12.00
2023-02-24T21:58:59.074Z,12.00
2023-02-24T22:01:32.327Z,12.00
2023-02-24T22:04:02.457Z,12.00
2023-02-24T22:06:33.278Z,12.00
2023-02-24T22:09:02.410Z,11.90
2023-02-24T22:11:32.737Z,11.90
2023-02-24T22:14:00.985Z,11.90
2023-02-24T22:16:30.997Z,11.90
2023-02-24T22:18:59.329Z,11.80
2023-02-24T22:21:29.714Z,11.80
2023-02-24T22:24:00.408Z,11.80
2023-02-24T22:26:30.256Z,11.80
2023-02-24T22:28:59.085Z,11.70
2023-02-24T22:31:29.287Z,11.70
2023-02-24T22:33:59.649Z,11.70
2023-02-24T22:36:29.667Z,11.70
2023-02-24T22:38:59.478Z,11.70
2023-02-24T22:41:31.073Z,11.60
2023-02-24T22:43:59.950Z,11.60
2023-02-24T22:46:29.955Z,11.60
2023-02-24T22:48:59.951Z,11.60
2023-02-24T22:51:28.435Z,11.60
2023-02-24T22:53:57.260Z,11.50
2023-02-24T22:56:27.763Z,11.50
2023-02-24T22:58:56.532Z,11.50
2023-02-24T23:01:27.086Z,11.50
2023-02-24T23:03:55.644Z,11.50
2023-02-24T23:06:26.771Z,11.50
2023-02-24T23:08:55.815Z,11.50
2023-02-24T23:11:27.768Z,11.50
2023-02-24T23:13:57.411Z,11.50
2023-02-24T23:16:29.673Z,11.50
2023-02-24T23:19:00.920Z,11.50
2023-02-24T23:21:35.797Z,11.50
2023-02-24T23:24:04.897Z,11.50
2023-02-24T23:26:34.604Z,11.50
2023-02-24T23:29:03.238Z,11.50
2023-02-24T23:31:31.935Z,11.50
2023-02-24T23:34:03.829Z,11.60
2023-02-24T23:36:33.774Z,11.60
2023-02-24T23:39:03.045Z,11.60
2023-02-24T23:41:31.228Z,11.60
2023-02-24T23:44:00.129Z,11.60
2023-02-24T23:46:28.844Z,11.60
2023-02-24T23:48:57.740Z,11.60
2023-02-24T23:51:27.994Z,11.60
2023-02-24T23:54:00.533Z,11.60
2023-02-24T23:56:30.082Z,11.60
2023-02-24T23:58:59.822Z,11.60
